sensor_id;sensor_type;location;lat;lon;timestamp;pressure;altitude;pressure_sealevel;temperature;humidity
71778;BME280;59609;52.430;4.668;2023-04-25T00:00:21;101139.59;;;7.38;90.86
71778;BME280;59609;52.430;4.668;2023-04-25T00:02:46;101138.22;;;7.43;90.59
71778;BME280;59609;52.430;4.668;2023-04-25T00:05:12;101149.16;;;7.34;89.19
71778;BME280;59609;52.430;4.668;2023-04-25T00:07:40;101142.19;;;7.30;89.36
71778;BME280;59609;52.430;4.668;2023-04-25T00:10:07;101137.72;;;7.29;90.00
71778;BME280;59609;52.430;4.668;2023-04-25T00:12:33;101136.44;;;7.33;90.02
71778;BME280;59609;52.430;4.668;2023-04-25T00:14:58;101135.13;;;7.27;91.58
71778;BME280;59609;52.430;4.668;2023-04-25T00:17:25;101141.59;;;7.26;91.07
71778;BME280;59609;52.430;4.668;2023-04-25T00:19:50;101135.22;;;7.16;89.93
71778;BME280;59609;52.430;4.668;2023-04-25T00:22:16;101148.38;;;7.22;90.74
71778;BME280;59609;52.430;4.668;2023-04-25T00:24:42;101144.31;;;7.16;91.08
71778;BME280;59609;52.430;4.668;2023-04-25T00:27:08;101151.22;;;7.20;91.34
71778;BME280;59609;52.430;4.668;2023-04-25T00:29:33;101159.59;;;7.19;91.09
71778;BME280;59609;52.430;4.668;2023-04-25T00:31:59;101161.06;;;7.23;91.59
71778;BME280;59609;52.430;4.668;2023-04-25T00:34:24;101156.59;;;7.22;89.24
71778;BME280;59609;52.430;4.668;2023-04-25T00:36:49;101152.53;;;7.16;89.28
71778;BME280;59609;52.430;4.668;2023-04-25T00:39:15;101151.47;;;7.08;88.00
71778;BME280;59609;52.430;4.668;2023-04-25T00:41:40;101159.69;;;7.08;87.35
71778;BME280;59609;52.430;4.668;2023-04-25T00:44:08;101151.69;;;6.95;88.49
71778;BME280;59609;52.430;4.668;2023-04-25T00:46:35;101148.34;;;6.92;88.31
71778;BME280;59609;52.430;4.668;2023-04-25T00:49:00;101150.19;;;6.82;89.07
71778;BME280;59609;52.430;4.668;2023-04-25T00:51:26;101164.28;;;6.77;90.18
71778;BME280;59609;52.430;4.668;2023-04-25T00:53:52;101164.41;;;6.76;91.00
71778;BME280;59609;52.430;4.668;2023-04-25T00:56:17;101163.53;;;6.75;90.67
71778;BME280;59609;52.430;4.668;2023-04-25T00:58:43;101159.66;;;6.78;90.23
71778;BME280;59609;52.430;4.668;2023-04-25T01:01:10;101154.59;;;6.73;90.01
71778;BME280;59609;52.430;4.668;2023-04-25T01:03:38;101155.72;;;6.70;90.70
71778;BME280;59609;52.430;4.668;2023-04-25T01:06:10;101162.94;;;6.71;90.18
71778;BME280;59609;52.430;4.668;2023-04-25T01:08:37;101163.00;;;6.81;89.96
71778;BME280;59609;52.430;4.668;2023-04-25T01:11:03;101167.09;;;6.87;90.58
71778;BME280;59609;52.430;4.668;2023-04-25T01:13:29;101168.28;;;6.94;90.67
71778;BME280;59609;52.430;4.668;2023-04-25T01:15:55;101160.91;;;6.94;91.67
71778;BME280;59609;52.430;4.668;2023-04-25T01:18:20;101171.78;;;7.05;91.52
71778;BME280;59609;52.430;4.668;2023-04-25T01:20:47;101173.66;;;7.05;92.17
71778;BME280;59609;52.430;4.668;2023-04-25T01:23:15;101179.88;;;7.07;93.08
71778;BME280;59609;52.430;4.668;2023-04-25T01:25:41;101170.31;;;7.01;93.67
71778;BME280;59609;52.430;4.668;2023-04-25T01:28:07;101168.44;;;7.02;94.63
71778;BME280;59609;52.430;4.668;2023-04-25T01:30:33;101172.66;;;7.06;94.57
71778;BME280;59609;52.430;4.668;2023-04-25T01:32:58;101175.13;;;7.09;94.75
71778;BME280;59609;52.430;4.668;2023-04-25T01:35:24;101173.09;;;7.11;95.24
71778;BME280;59609;52.430;4.668;2023-04-25T01:37:50;101172.97;;;7.12;94.96
71778;BME280;59609;52.430;4.668;2023-04-25T01:40:17;101171.72;;;7.16;95.26
71778;BME280;59609;52.430;4.668;2023-04-25T01:42:44;101175.16;;;7.18;95.09
71778;BME280;59609;52.430;4.668;2023-04-25T01:45:11;101181.72;;;7.27;95.81
71778;BME280;59609;52.430;4.668;2023-04-25T01:47:38;101178.09;;;7.27;95.63
71778;BME280;59609;52.430;4.668;2023-04-25T01:50:06;101185.16;;;7.29;96.40
71778;BME280;59609;52.430;4.668;2023-04-25T01:52:32;101186.91;;;7.30;95.60
71778;BME280;59609;52.430;4.668;2023-04-25T01:54:59;101182.13;;;7.22;96.40
71778;BME280;59609;52.430;4.668;2023-04-25T01:57:26;101182.13;;;7.22;95.83
71778;BME280;59609;52.430;4.668;2023-04-25T02:00:00;101191.66;;;7.28;95.27
71778;BME280;59609;52.430;4.668;2023-04-25T02:02:26;101191.66;;;7.28;93.99
71778;BME280;59609;52.430;4.668;2023-04-25T02:04:52;101203.34;;;7.30;94.60
71778;BME280;59609;52.430;4.668;2023-04-25T02:07:17;101201.97;;;7.15;94.04
71778;BME280;59609;52.430;4.668;2023-04-25T02:09:43;101209.47;;;7.13;94.67
71778;BME280;59609;52.430;4.668;2023-04-25T02:12:10;101210.19;;;7.15;92.95
71778;BME280;59609;52.430;4.668;2023-04-25T02:14:35;101214.47;;;7.08;93.75
71778;BME280;59609;52.430;4.668;2023-04-25T02:17:00;101212.75;;;7.07;92.88
71778;BME280;59609;52.430;4.668;2023-04-25T02:19:26;101207.63;;;6.93;92.10
71778;BME280;59609;52.430;4.668;2023-04-25T02:21:51;101214.84;;;6.94;92.35
71778;BME280;59609;52.430;4.668;2023-04-25T02:24:17;101214.75;;;6.84;92.03
71778;BME280;59609;52.430;4.668;2023-04-25T02:26:42;101208.56;;;6.82;91.46
71778;BME280;59609;52.430;4.668;2023-04-25T02:29:09;101216.09;;;6.90;91.49
71778;BME280;59609;52.430;4.668;2023-04-25T02:31:34;101214.63;;;6.86;91.63
71778;BME280;59609;52.430;4.668;2023-04-25T02:33:59;101214.31;;;6.79;90.17
71778;BME280;59609;52.430;4.668;2023-04-25T02:36:25;101206.22;;;6.78;89.55
71778;BME280;59609;52.430;4.668;2023-04-25T02:38:51;101204.94;;;6.82;89.54
71778;BME280;59609;52.430;4.668;2023-04-25T02:41:17;101205.69;;;6.84;89.62
71778;BME280;59609;52.430;4.668;2023-04-25T02:43:42;101211.28;;;6.82;89.60
71778;BME280;59609;52.430;4.668;2023-04-25T02:46:07;101214.31;;;6.79;88.86
71778;BME280;59609;52.430;4.668;2023-04-25T02:48:33;101209.81;;;6.78;88.99
71778;BME280;59609;52.430;4.668;2023-04-25T02:50:58;101206.09;;;6.79;88.35
71778;BME280;59609;52.430;4.668;2023-04-25T02:53:23;101215.50;;;6.86;88.12
71778;BME280;59609;52.430;4.668;2023-04-25T02:55:49;101215.34;;;6.88;88.30
71778;BME280;59609;52.430;4.668;2023-04-25T02:58:14;101208.88;;;6.89;87.97
71778;BME280;59609;52.430;4.668;2023-04-25T03:00:40;101205.75;;;6.93;88.01
71778;BME280;59609;52.430;4.668;2023-04-25T03:03:06;101212.66;;;6.97;88.24
71778;BME280;59609;52.430;4.668;2023-04-25T03:05:31;101208.00;;;6.88;88.36
71778;BME280;59609;52.430;4.668;2023-04-25T03:07:56;101219.19;;;6.76;89.12
71778;BME280;59609;52.430;4.668;2023-04-25T03:10:22;101224.38;;;6.79;89.40
71778;BME280;59609;52.430;4.668;2023-04-25T03:12:47;101234.63;;;6.77;90.71
71778;BME280;59609;52.430;4.668;2023-04-25T03:15:12;101239.59;;;6.71;91.42
71778;BME280;59609;52.430;4.668;2023-04-25T03:17:38;101235.19;;;6.59;93.87
71778;BME280;59609;52.430;4.668;2023-04-25T03:20:03;101229.91;;;6.47;93.14
71778;BME280;59609;52.430;4.668;2023-04-25T03:22:29;101232.25;;;6.51;92.81
71778;BME280;59609;52.430;4.668;2023-04-25T03:24:54;101243.94;;;6.53;92.92
71778;BME280;59609;52.430;4.668;2023-04-25T03:27:20;101248.13;;;6.57;92.72
71778;BME280;59609;52.430;4.668;2023-04-25T03:29:45;101266.81;;;6.52;93.83
71778;BME280;59609;52.430;4.668;2023-04-25T03:32:11;101273.97;;;6.44;94.01
71778;BME280;59609;52.430;4.668;2023-04-25T03:34:36;101266.69;;;6.11;98.54
71778;BME280;59609;52.430;4.668;2023-04-25T03:37:02;101253.53;;;6.05;100.00
71778;BME280;59609;52.430;4.668;2023-04-25T03:39:27;101257.66;;;5.99;100.00
71778;BME280;59609;52.430;4.668;2023-04-25T03:41:52;101256.28;;;6.05;100.00
71778;BME280;59609;52.430;4.668;2023-04-25T03:44:18;101246.47;;;6.02;100.00
71778;BME280;59609;52.430;4.668;2023-04-25T03:46:43;101231.81;;;6.03;100.00
71778;BME280;59609;52.430;4.668;2023-04-25T03:49:08;101236.16;;;6.06;100.00
71778;BME280;59609;52.430;4.668;2023-04-25T03:51:34;101242.34;;;6.08;100.00
71778;BME280;59609;52.430;4.668;2023-04-25T03:53:59;101236.16;;;6.06;100.00
71778;BME280;59609;52.430;4.668;2023-04-25T03:56:25;101256.03;;;6.08;100.00
71778;BME280;59609;52.430;4.668;2023-04-25T03:58:50;101249.31;;;6.01;100.00
71778;BME280;59609;52.430;4.668;2023-04-25T04:01:15;101239.59;;;6.19;92.26
71778;BME280;59609;52.430;4.668;2023-04-25T04:03:41;101250.34;;;6.32;91.06
71778;BME280;59609;52.430;4.668;2023-04-25T04:06:07;101252.56;;;6.38;92.59
71778;BME280;59609;52.430;4.668;2023-04-25T04:08:33;101256.06;;;6.40;93.90
71778;BME280;59609;52.430;4.668;2023-04-25T04:10:58;101242.50;;;6.38;94.42
71778;BME280;59609;52.430;4.668;2023-04-25T04:13:27;101249.44;;;6.42;95.43
71778;BME280;59609;52.430;4.668;2023-04-25T04:15:53;101255.38;;;6.47;96.57
71778;BME280;59609;52.430;4.668;2023-04-25T04:18:19;101254.94;;;6.42;96.83
71778;BME280;59609;52.430;4.668;2023-04-25T04:20:44;101252.91;;;6.44;96.44
71778;BME280;59609;52.430;4.668;2023-04-25T04:23:09;101254.53;;;6.47;97.55
71778;BME280;59609;52.430;4.668;2023-04-25T04:25:36;101244.31;;;6.49;97.82
71778;BME280;59609;52.430;4.668;2023-04-25T04:28:01;101258.63;;;6.52;97.93
71778;BME280;59609;52.430;4.668;2023-04-25T04:30:26;101254.75;;;6.55;98.79
71778;BME280;59609;52.430;4.668;2023-04-25T04:32:55;101254.34;;;6.59;98.54
71778;BME280;59609;52.430;4.668;2023-04-25T04:35:21;101251.75;;;6.58;97.78
71778;BME280;59609;52.430;4.668;2023-04-25T04:37:46;101253.22;;;6.62;97.65
71778;BME280;59609;52.430;4.668;2023-04-25T04:40:13;101251.81;;;6.67;97.18
71778;BME280;59609;52.430;4.668;2023-04-25T04:42:41;101263.38;;;6.71;97.57
71778;BME280;59609;52.430;4.668;2023-04-25T04:45:06;101266.88;;;6.73;96.95
71778;BME280;59609;52.430;4.668;2023-04-25T04:47:32;101274.81;;;6.76;97.09
71778;BME280;59609;52.430;4.668;2023-04-25T04:49:59;101280.28;;;6.76;96.30
71778;BME280;59609;52.430;4.668;2023-04-25T04:52:24;101278.69;;;6.73;96.20
71778;BME280;59609;52.430;4.668;2023-04-25T04:54:49;101281.81;;;6.69;95.21
71778;BME280;59609;52.430;4.668;2023-04-25T04:57:15;101285.44;;;6.69;93.95
71778;BME280;59609;52.430;4.668;2023-04-25T04:59:41;101289.75;;;6.72;94.60
71778;BME280;59609;52.430;4.668;2023-04-25T05:02:07;101290.09;;;6.79;92.54
71778;BME280;59609;52.430;4.668;2023-04-25T05:04:32;101291.16;;;6.87;92.42
71778;BME280;59609;52.430;4.668;2023-04-25T05:06:57;101286.09;;;6.83;91.26
71778;BME280;59609;52.430;4.668;2023-04-25T05:09:23;101305.06;;;6.95;91.19
71778;BME280;59609;52.430;4.668;2023-04-25T05:11:51;101306.81;;;6.96;91.40
71778;BME280;59609;52.430;4.668;2023-04-25T05:14:16;101303.66;;;7.01;92.21
71778;BME280;59609;52.430;4.668;2023-04-25T05:16:42;101315.91;;;7.17;92.74
71778;BME280;59609;52.430;4.668;2023-04-25T05:19:08;101309.66;;;7.27;92.79
71778;BME280;59609;52.430;4.668;2023-04-25T05:21:33;101309.66;;;7.27;92.50
71778;BME280;59609;52.430;4.668;2023-04-25T05:23:59;101310.06;;;7.52;91.76
71778;BME280;59609;52.430;4.668;2023-04-25T05:26:25;101320.84;;;7.74;90.65
71778;BME280;59609;52.430;4.668;2023-04-25T05:28:50;101311.75;;;7.74;91.15
71778;BME280;59609;52.430;4.668;2023-04-25T05:31:16;101330.00;;;7.85;89.66
71778;BME280;59609;52.430;4.668;2023-04-25T05:33:41;101329.28;;;7.83;88.17
71778;BME280;59609;52.430;4.668;2023-04-25T05:36:07;101319.66;;;7.98;87.25
71778;BME280;59609;52.430;4.668;2023-04-25T05:38:33;101337.91;;;8.08;85.43
71778;BME280;59609;52.430;4.668;2023-04-25T05:40:58;101337.78;;;8.10;85.09
71778;BME280;59609;52.430;4.668;2023-04-25T05:43:23;101329.25;;;8.13;83.81
71778;BME280;59609;52.430;4.668;2023-04-25T05:45:49;101339.09;;;8.25;83.74
71778;BME280;59609;52.430;4.668;2023-04-25T05:48:14;101350.25;;;8.23;84.02
71778;BME280;59609;52.430;4.668;2023-04-25T05:50:40;101348.88;;;8.08;83.11
71778;BME280;59609;52.430;4.668;2023-04-25T05:53:05;101355.25;;;8.09;83.67
71778;BME280;59609;52.430;4.668;2023-04-25T05:55:31;101339.03;;;7.96;82.42
71778;BME280;59609;52.430;4.668;2023-04-25T05:57:56;101357.06;;;7.99;82.72
71778;BME280;59609;52.430;4.668;2023-04-25T06:00:21;101358.34;;;7.95;83.22
71778;BME280;59609;52.430;4.668;2023-04-25T06:02:47;101363.84;;;7.95;84.35
71778;BME280;59609;52.430;4.668;2023-04-25T06:05:13;101360.22;;;7.94;83.11
71778;BME280;59609;52.430;4.668;2023-04-25T06:07:38;101365.19;;;8.00;84.00
71778;BME280;59609;52.430;4.668;2023-04-25T06:10:04;101376.00;;;8.02;83.79
71778;BME280;59609;52.430;4.668;2023-04-25T06:12:34;101386.38;;;7.98;83.60
71778;BME280;59609;52.430;4.668;2023-04-25T06:15:00;101382.75;;;7.67;82.23
71778;BME280;59609;52.430;4.668;2023-04-25T06:17:25;101381.53;;;7.81;83.51
71778;BME280;59609;52.430;4.668;2023-04-25T06:19:50;101381.88;;;7.97;83.75
71778;BME280;59609;52.430;4.668;2023-04-25T06:22:16;101393.38;;;8.12;81.68
71778;BME280;59609;52.430;4.668;2023-04-25T06:24:41;101384.28;;;8.11;84.10
71778;BME280;59609;52.430;4.668;2023-04-25T06:27:07;101383.84;;;8.06;83.49
71778;BME280;59609;52.430;4.668;2023-04-25T06:29:32;101392.94;;;8.07;81.89
71778;BME280;59609;52.430;4.668;2023-04-25T06:31:57;101401.22;;;8.47;81.16
71778;BME280;59609;52.430;4.668;2023-04-25T06:34:23;101396.47;;;8.58;76.75
71778;BME280;59609;52.430;4.668;2023-04-25T06:36:48;101389.56;;;8.64;74.11
71778;BME280;59609;52.430;4.668;2023-04-25T06:39:13;101398.69;;;8.84;74.69
71778;BME280;59609;52.430;4.668;2023-04-25T06:41:39;101397.94;;;8.72;73.55
71778;BME280;59609;52.430;4.668;2023-04-25T06:44:04;101399.09;;;8.69;75.04
71778;BME280;59609;52.430;4.668;2023-04-25T06:46:29;101401.16;;;8.87;73.44
71778;BME280;59609;52.430;4.668;2023-04-25T06:48:55;101397.13;;;9.00;72.68
71778;BME280;59609;52.430;4.668;2023-04-25T06:51:20;101410.16;;;9.27;71.02
71778;BME280;59609;52.430;4.668;2023-04-25T06:53:46;101407.66;;;9.05;73.21
71778;BME280;59609;52.430;4.668;2023-04-25T06:56:11;101414.34;;;9.12;72.31
71778;BME280;59609;52.430;4.668;2023-04-25T06:58:36;101418.41;;;9.37;70.88
71778;BME280;59609;52.430;4.668;2023-04-25T07:01:02;101423.31;;;9.52;70.53
71778;BME280;59609;52.430;4.668;2023-04-25T07:03:28;101422.56;;;9.69;71.95
71778;BME280;59609;52.430;4.668;2023-04-25T07:05:53;101419.97;;;9.58;69.07
71778;BME280;59609;52.430;4.668;2023-04-25T07:08:18;101421.97;;;9.75;70.32
71778;BME280;59609;52.430;4.668;2023-04-25T07:10:44;101421.19;;;10.02;68.08
71778;BME280;59609;52.430;4.668;2023-04-25T07:13:11;101413.75;;;10.22;68.34
71778;BME280;59609;52.430;4.668;2023-04-25T07:15:36;101415.56;;;10.04;67.40
71778;BME280;59609;52.430;4.668;2023-04-25T07:18:02;101414.72;;;9.94;67.97
71778;BME280;59609;52.430;4.668;2023-04-25T07:20:27;101431.19;;;10.03;68.72
71778;BME280;59609;52.430;4.668;2023-04-25T07:22:53;101433.06;;;10.49;70.00
71778;BME280;59609;52.430;4.668;2023-04-25T07:25:18;101440.00;;;10.26;72.58
71778;BME280;59609;52.430;4.668;2023-04-25T07:27:44;101446.75;;;9.66;70.72
71778;BME280;59609;52.430;4.668;2023-04-25T07:30:09;101455.31;;;9.63;71.37
71778;BME280;59609;52.430;4.668;2023-04-25T07:32:35;101457.47;;;9.59;69.22
71778;BME280;59609;52.430;4.668;2023-04-25T07:35:01;101451.38;;;9.75;72.66
71778;BME280;59609;52.430;4.668;2023-04-25T07:37:27;101452.38;;;9.83;71.20
71778;BME280;59609;52.430;4.668;2023-04-25T07:39:52;101438.16;;;10.07;70.86
71778;BME280;59609;52.430;4.668;2023-04-25T07:42:18;101453.78;;;10.16;70.77
71778;BME280;59609;52.430;4.668;2023-04-25T07:44:43;101455.19;;;10.30;70.08
71778;BME280;59609;52.430;4.668;2023-04-25T07:47:09;101465.66;;;10.91;68.68
71778;BME280;59609;52.430;4.668;2023-04-25T07:49:35;101464.53;;;10.83;67.00
71778;BME280;59609;52.430;4.668;2023-04-25T07:52:01;101473.50;;;10.58;66.53
71778;BME280;59609;52.430;4.668;2023-04-25T07:54:27;101462.47;;;10.58;65.75
71778;BME280;59609;52.430;4.668;2023-04-25T07:56:52;101467.75;;;10.79;65.70
71778;BME280;59609;52.430;4.668;2023-04-25T07:59:18;101474.44;;;11.04;63.06
71778;BME280;59609;52.430;4.668;2023-04-25T08:01:43;101473.81;;;10.82;60.60
71778;BME280;59609;52.430;4.668;2023-04-25T08:04:08;101470.38;;;10.71;59.26
71778;BME280;59609;52.430;4.668;2023-04-25T08:06:35;101475.72;;;11.27;59.04
71778;BME280;59609;52.430;4.668;2023-04-25T08:09:01;101487.72;;;10.91;62.92
71778;BME280;59609;52.430;4.668;2023-04-25T08:11:26;101501.84;;;11.05;66.83
71778;BME280;59609;52.430;4.668;2023-04-25T08:13:51;101501.16;;;10.66;67.79
71778;BME280;59609;52.430;4.668;2023-04-25T08:16:17;101515.78;;;10.76;70.22
71778;BME280;59609;52.430;4.668;2023-04-25T08:18:42;101516.66;;;10.30;69.44
71778;BME280;59609;52.430;4.668;2023-04-25T08:21:08;101521.44;;;10.09;69.57
71778;BME280;59609;52.430;4.668;2023-04-25T08:23:36;101527.69;;;9.82;68.74
71778;BME280;59609;52.430;4.668;2023-04-25T08:26:02;101525.81;;;9.93;67.70
71778;BME280;59609;52.430;4.668;2023-04-25T08:28:27;101542.31;;;9.93;67.43
71778;BME280;59609;52.430;4.668;2023-04-25T08:30:53;101537.69;;;10.03;65.46
71778;BME280;59609;52.430;4.668;2023-04-25T08:33:19;101545.19;;;10.01;65.35
71778;BME280;59609;52.430;4.668;2023-04-25T08:35:44;101555.81;;;9.76;64.27
71778;BME280;59609;52.430;4.668;2023-04-25T08:38:10;101556.81;;;9.85;61.69
71778;BME280;59609;52.430;4.668;2023-04-25T08:40:37;101551.44;;;10.03;62.05
71778;BME280;59609;52.430;4.668;2023-04-25T08:43:03;101558.38;;;9.88;63.20
71778;BME280;59609;52.430;4.668;2023-04-25T08:45:31;101559.25;;;9.88;62.36
71778;BME280;59609;52.430;4.668;2023-04-25T08:47:57;101558.81;;;10.31;62.67
71778;BME280;59609;52.430;4.668;2023-04-25T08:50:23;101555.34;;;10.39;61.64
71778;BME280;59609;52.430;4.668;2023-04-25T08:52:49;101559.56;;;10.79;61.33
71778;BME280;59609;52.430;4.668;2023-04-25T08:55:18;101559.66;;;10.88;61.20
71778;BME280;59609;52.430;4.668;2023-04-25T08:57:44;101573.41;;;10.60;60.39
71778;BME280;59609;52.430;4.668;2023-04-25T09:00:11;101571.81;;;10.58;62.23
71778;BME280;59609;52.430;4.668;2023-04-25T09:02:39;101575.78;;;10.36;62.57
71778;BME280;59609;52.430;4.668;2023-04-25T09:05:05;101585.06;;;10.35;63.89
71778;BME280;59609;52.430;4.668;2023-04-25T09:07:32;101593.00;;;10.48;63.33
71778;BME280;59609;52.430;4.668;2023-04-25T09:09:58;101588.41;;;10.85;62.56
71778;BME280;59609;52.430;4.668;2023-04-25T09:12:29;101583.38;;;11.08;63.44
71778;BME280;59609;52.430;4.668;2023-04-25T09:15:06;101580.25;;;11.48;62.17
71778;BME280;59609;52.430;4.668;2023-04-25T09:17:32;101583.19;;;11.46;60.54
71778;BME280;59609;52.430;4.668;2023-04-25T09:20:08;101585.16;;;11.99;60.32
71778;BME280;59609;52.430;4.668;2023-04-25T09:22:35;101596.59;;;11.86;58.92
71778;BME280;59609;52.430;4.668;2023-04-25T09:25:03;101579.63;;;12.60;57.53
71778;BME280;59609;52.430;4.668;2023-04-25T09:27:29;101584.84;;;12.02;58.23
71778;BME280;59609;52.430;4.668;2023-04-25T09:29:59;101594.69;;;12.39;57.53
71778;BME280;59609;52.430;4.668;2023-04-25T09:32:27;101594.81;;;12.56;56.49
71778;BME280;59609;52.430;4.668;2023-04-25T09:34:54;101594.44;;;12.33;55.73
71778;BME280;59609;52.430;4.668;2023-04-25T09:37:24;101601.00;;;12.14;56.58
71778;BME280;59609;52.430;4.668;2023-04-25T09:39:55;101612.66;;;11.46;58.04
71778;BME280;59609;52.430;4.668;2023-04-25T09:42:22;101621.69;;;11.65;57.38
71778;BME280;59609;52.430;4.668;2023-04-25T09:44:52;101636.41;;;11.29;58.44
71778;BME280;59609;52.430;4.668;2023-04-25T09:47:17;101649.25;;;11.20;61.56
71778;BME280;59609;52.430;4.668;2023-04-25T09:49:43;101645.94;;;10.51;64.59
71778;BME280;59609;52.430;4.668;2023-04-25T09:52:20;101648.88;;;10.30;64.95
71778;BME280;59609;52.430;4.668;2023-04-25T09:54:46;101646.06;;;10.02;65.77
71778;BME280;59609;52.430;4.668;2023-04-25T09:57:19;101648.00;;;10.30;65.28
71778;BME280;59609;52.430;4.668;2023-04-25T09:59:47;101641.13;;;10.72;63.99
71778;BME280;59609;52.430;4.668;2023-04-25T10:02:14;101640.53;;;11.15;61.21
71778;BME280;59609;52.430;4.668;2023-04-25T10:04:41;101628.22;;;11.64;59.60
71778;BME280;59609;52.430;4.668;2023-04-25T10:07:07;101633.25;;;11.78;59.92
71778;BME280;59609;52.430;4.668;2023-04-25T10:09:34;101644.91;;;12.00;58.85
71778;BME280;59609;52.430;4.668;2023-04-25T10:12:02;101636.66;;;11.72;58.11
71778;BME280;59609;52.430;4.668;2023-04-25T10:14:29;101638.78;;;12.67;58.39
71778;BME280;59609;52.430;4.668;2023-04-25T10:16:55;101632.38;;;13.10;56.75
71778;BME280;59609;52.430;4.668;2023-04-25T10:19:21;101639.84;;;11.77;57.68
71778;BME280;59609;52.430;4.668;2023-04-25T10:21:52;101647.06;;;11.78;59.18
71778;BME280;59609;52.430;4.668;2023-04-25T10:24:19;101639.91;;;12.38;59.23
71778;BME280;59609;52.430;4.668;2023-04-25T10:26:46;101648.63;;;13.13;57.90
71778;BME280;59609;52.430;4.668;2023-04-25T10:29:12;101649.16;;;12.47;65.34
71778;BME280;59609;52.430;4.668;2023-04-25T10:31:46;101653.00;;;11.83;63.73
71778;BME280;59609;52.430;4.668;2023-04-25T10:34:16;101654.25;;;11.34;62.28
71778;BME280;59609;52.430;4.668;2023-04-25T10:36:42;101654.13;;;11.63;62.66
71778;BME280;59609;52.430;4.668;2023-04-25T10:39:08;101658.31;;;12.12;59.54
71778;BME280;59609;52.430;4.668;2023-04-25T10:41:52;101668.34;;;12.13;57.01
71778;BME280;59609;52.430;4.668;2023-04-25T10:44:17;101667.53;;;12.56;56.86
71778;BME280;59609;52.430;4.668;2023-04-25T10:46:44;101673.09;;;12.82;55.05
71778;BME280;59609;52.430;4.668;2023-04-25T10:49:10;101678.97;;;12.79;57.21
71778;BME280;59609;52.430;4.668;2023-04-25T10:51:36;101674.59;;;12.94;56.68
71778;BME280;59609;52.430;4.668;2023-04-25T10:54:03;101683.66;;;12.61;56.38
71778;BME280;59609;52.430;4.668;2023-04-25T10:59:15;101685.81;;;13.10;53.35
71778;BME280;59609;52.430;4.668;2023-04-25T11:01:43;101681.59;;;13.66;52.86
71778;BME280;59609;52.430;4.668;2023-04-25T11:04:28;101673.28;;;13.24;52.18
71778;BME280;59609;52.430;4.668;2023-04-25T11:07:13;101680.03;;;13.04;51.92
71778;BME280;59609;52.430;4.668;2023-04-25T11:09:45;101682.97;;;12.84;50.79
71778;BME280;59609;52.430;4.668;2023-04-25T11:12:13;101673.28;;;13.24;50.57
71778;BME280;59609;52.430;4.668;2023-04-25T11:14:40;101671.63;;;13.39;53.45
71778;BME280;59609;52.430;4.668;2023-04-25T11:17:05;101679.38;;;13.69;54.33
71778;BME280;59609;52.430;4.668;2023-04-25T11:19:31;101688.31;;;12.60;55.72
71778;BME280;59609;52.430;4.668;2023-04-25T11:21:58;101686.31;;;12.00;59.71
71778;BME280;59609;52.430;4.668;2023-04-25T11:24:31;101689.53;;;11.77;60.96
71778;BME280;59609;52.430;4.668;2023-04-25T11:26:58;101694.72;;;12.61;58.85
71778;BME280;59609;52.430;4.668;2023-04-25T11:29:27;101686.34;;;12.96;57.05
71778;BME280;59609;52.430;4.668;2023-04-25T11:31:54;101694.31;;;12.99;54.14
71778;BME280;59609;52.430;4.668;2023-04-25T11:34:23;101684.16;;;12.82;53.91
71778;BME280;59609;52.430;4.668;2023-04-25T11:36:49;101693.56;;;12.89;51.08
71778;BME280;59609;52.430;4.668;2023-04-25T11:39:15;101694.31;;;13.17;51.12
71778;BME280;59609;52.430;4.668;2023-04-25T11:41:41;101698.09;;;12.72;48.32
71778;BME280;59609;52.430;4.668;2023-04-25T11:44:07;101698.94;;;12.90;50.85
71778;BME280;59609;52.430;4.668;2023-04-25T11:46:36;101697.31;;;12.62;49.80
71778;BME280;59609;52.430;4.668;2023-04-25T11:49:01;101705.72;;;13.14;50.91
71778;BME280;59609;52.430;4.668;2023-04-25T11:51:27;101698.09;;;13.16;50.67
71778;BME280;59609;52.430;4.668;2023-04-25T11:53:52;101708.31;;;12.54;50.29
71778;BME280;59609;52.430;4.668;2023-04-25T11:56:18;101702.72;;;12.89;50.55
71778;BME280;59609;52.430;4.668;2023-04-25T12:01:37;101697.31;;;13.23;49.15
71778;BME280;59609;52.430;4.668;2023-04-25T12:04:17;101710.09;;;13.24;48.26
71778;BME280;59609;52.430;4.668;2023-04-25T12:06:44;101711.19;;;13.65;49.26
71778;BME280;59609;52.430;4.668;2023-04-25T12:09:12;101718.84;;;13.37;49.21
71778;BME280;59609;52.430;4.668;2023-04-25T12:11:47;101715.75;;;13.40;50.45
71778;BME280;59609;52.430;4.668;2023-04-25T12:14:45;101711.88;;;13.59;51.24
71778;BME280;59609;52.430;4.668;2023-04-25T12:17:12;101715.44;;;13.77;48.94
71778;BME280;59609;52.430;4.668;2023-04-25T12:19:38;101711.50;;;13.54;49.33
71778;BME280;59609;52.430;4.668;2023-04-25T12:22:23;101722.28;;;13.65;50.83
71778;BME280;59609;52.430;4.668;2023-04-25T12:24:48;101724.75;;;13.17;52.05
71778;BME280;59609;52.430;4.668;2023-04-25T12:27:15;101720.19;;;12.90;52.69
71778;BME280;59609;52.430;4.668;2023-04-25T12:29:50;101725.16;;;13.04;51.87
71778;BME280;59609;52.430;4.668;2023-04-25T12:32:16;101727.44;;;12.91;49.75
71778;BME280;59609;52.430;4.668;2023-04-25T12:34:43;101725.13;;;13.22;51.63
71778;BME280;59609;52.430;4.668;2023-04-25T12:37:09;101726.81;;;13.74;49.06
71778;BME280;59609;52.430;4.668;2023-04-25T12:39:34;101723.94;;;13.50;47.98
71778;BME280;59609;52.430;4.668;2023-04-25T12:42:00;101732.00;;;13.69;49.36
71778;BME280;59609;52.430;4.668;2023-04-25T12:44:26;101729.78;;;14.23;49.22
71778;BME280;59609;52.430;4.668;2023-04-25T12:46:52;101736.16;;;12.96;50.26
71778;BME280;59609;52.430;4.668;2023-04-25T12:49:18;101737.13;;;12.52;52.65
71778;BME280;59609;52.430;4.668;2023-04-25T12:51:43;101740.03;;;12.85;52.77
71778;BME280;59609;52.430;4.668;2023-04-25T12:54:08;101733.75;;;13.45;51.01
71778;BME280;59609;52.430;4.668;2023-04-25T12:56:34;101746.56;;;13.20;51.52